createdAt,value
2022-12-04T00:04:20.425Z,1001.86
2022-12-04T00:09:20.315Z,1001.84
2022-12-04T00:14:20.247Z,1001.85
2022-12-04T00:19:20.178Z,1001.91
2022-12-04T00:24:20.122Z,1001.94
2022-12-04T00:29:20.050Z,1001.98
2022-12-04T00:34:20.043Z,1001.92
2022-12-04T00:39:19.982Z,1001.83
2022-12-04T00:44:19.867Z,1001.75
2022-12-04T00:49:19.792Z,1001.66
2022-12-04T00:54:19.736Z,1001.54
2022-12-04T00:59:19.666Z,1001.50
2022-12-04T01:04:19.614Z,1001.51
2022-12-04T01:09:19.539Z,1001.51
2022-12-04T01:14:19.481Z,1001.50
2022-12-04T01:19:19.417Z,1001.49
2022-12-04T01:24:19.354Z,1001.53
2022-12-04T01:29:19.283Z,1001.32
2022-12-04T01:34:19.236Z,1001.29
2022-12-04T01:39:19.154Z,1001.31
2022-12-04T01:44:19.096Z,1001.36
2022-12-04T01:49:19.024Z,1001.29
2022-12-04T01:54:18.969Z,1001.32
2022-12-04T01:59:18.900Z,1001.31
2022-12-04T02:04:18.842Z,1001.33
2022-12-04T02:09:24.647Z,1001.32
2022-12-04T02:14:18.713Z,1001.20
2022-12-04T02:19:18.643Z,1001.26
2022-12-04T02:24:18.585Z,1001.16
2022-12-04T02:29:18.514Z,1001.15
2022-12-04T02:34:18.455Z,1001.20
2022-12-04T02:39:18.384Z,1001.13
2022-12-04T02:44:18.328Z,1001.13
2022-12-04T02:49:18.521Z,1001.06
2022-12-04T02:54:18.201Z,1000.97
2022-12-04T02:59:18.136Z,1000.87
2022-12-04T03:04:18.076Z,1001.00
2022-12-04T03:09:18.002Z,1001.02
2022-12-04T03:14:17.947Z,1000.98
2022-12-04T03:19:17.885Z,1001.03
2022-12-04T03:24:17.816Z,1001.03
2022-12-04T03:29:17.746Z,1001.11
2022-12-04T03:34:17.688Z,1001.10
2022-12-04T03:39:17.615Z,1001.05
2022-12-04T03:44:17.559Z,1001.06
2022-12-04T03:49:17.488Z,1001.08
2022-12-04T03:54:17.433Z,1001.14
2022-12-04T03:59:17.363Z,1001.13
2022-12-04T04:04:17.302Z,1001.00
2022-12-04T04:09:17.231Z,1000.91
2022-12-04T04:14:17.176Z,1001.07
2022-12-04T04:19:17.105Z,1001.06
2022-12-04T04:24:17.040Z,1000.96
2022-12-04T04:29:16.975Z,1000.98
2022-12-04T04:34:16.908Z,1000.96
2022-12-04T04:39:16.847Z,1001.03
2022-12-04T04:44:16.782Z,1001.08
2022-12-04T04:49:16.718Z,1001.01
2022-12-04T04:54:16.662Z,1001.02
2022-12-04T04:59:16.581Z,1000.91
2022-12-04T05:04:16.522Z,1000.98
2022-12-04T05:09:16.454Z,1000.97
2022-12-04T05:14:16.396Z,1000.90
2022-12-04T05:19:16.325Z,1000.89
2022-12-04T05:24:16.271Z,1000.87
2022-12-04T05:29:16.201Z,1000.84
2022-12-04T05:34:16.143Z,1000.80
2022-12-04T05:39:16.069Z,1000.83
2022-12-04T05:44:16.013Z,1000.76
2022-12-04T05:49:15.941Z,1000.83
2022-12-04T05:54:15.886Z,1000.72
2022-12-04T05:59:15.813Z,1000.74
2022-12-04T06:04:15.757Z,1000.80
2022-12-04T06:09:15.686Z,1000.80
2022-12-04T06:14:15.628Z,1000.70
2022-12-04T06:19:15.567Z,1000.66
2022-12-04T06:24:15.501Z,1000.66
2022-12-04T06:29:15.439Z,1000.75
2022-12-04T06:34:15.373Z,1000.72
2022-12-04T06:39:18.641Z,1000.85
2022-12-04T06:44:15.245Z,1000.97
2022-12-04T06:49:15.185Z,1001.03
2022-12-04T06:54:15.117Z,1001.10
2022-12-04T06:59:15.045Z,1001.24
2022-12-04T07:04:14.990Z,1001.18
2022-12-04T07:09:14.922Z,1001.12
2022-12-04T07:14:14.871Z,1001.25
2022-12-04T07:19:14.792Z,1001.22
2022-12-04T07:24:14.733Z,1001.20
2022-12-04T07:29:14.666Z,1001.17
2022-12-04T07:34:14.607Z,1001.09
2022-12-04T07:39:14.545Z,1001.25
2022-12-04T07:44:14.479Z,1001.24
2022-12-04T07:49:14.418Z,1001.25
2022-12-04T07:54:14.352Z,1001.29
2022-12-04T07:59:14.290Z,1001.27
2022-12-04T08:04:14.259Z,1001.27
2022-12-04T08:09:14.165Z,1001.19
2022-12-04T08:14:14.109Z,1001.42
2022-12-04T08:19:14.024Z,1001.44
2022-12-04T08:24:13.978Z,1001.37
2022-12-04T08:29:13.915Z,1001.48
2022-12-04T08:34:13.852Z,1001.50
2022-12-04T08:39:13.773Z,1001.48
2022-12-04T08:44:13.723Z,1001.41
2022-12-04T08:49:13.642Z,1001.29
2022-12-04T08:54:13.587Z,1001.23
2022-12-04T08:59:13.517Z,1001.28
2022-12-04T09:04:13.517Z,1001.30
2022-12-04T09:09:13.390Z,1001.26
2022-12-04T09:14:13.334Z,1001.31
2022-12-04T09:19:13.262Z,1001.31
2022-12-04T09:24:13.204Z,1001.20
2022-12-04T09:29:13.141Z,1001.24
2022-12-04T09:34:13.088Z,1001.11
2022-12-04T09:39:13.006Z,1001.14
2022-12-04T09:44:13.061Z,1001.09
2022-12-04T09:49:12.877Z,1000.94
2022-12-04T09:54:12.832Z,1000.98
2022-12-04T09:59:12.752Z,1000.96
2022-12-04T10:04:12.775Z,1000.99
2022-12-04T10:09:12.622Z,1001.01
2022-12-04T10:14:12.567Z,1000.91
2022-12-04T10:19:12.496Z,1000.86
2022-12-04T10:24:12.436Z,1000.86
2022-12-04T10:29:12.365Z,1000.99
2022-12-04T10:34:12.309Z,1001.05
2022-12-04T10:39:12.254Z,1000.90
2022-12-04T10:44:12.183Z,1000.89
2022-12-04T10:49:12.110Z,1000.90
2022-12-04T10:54:12.064Z,1000.89
2022-12-04T10:59:11.984Z,1000.90
2022-12-04T11:04:11.937Z,1000.90
2022-12-04T11:09:11.856Z,1000.85
2022-12-04T11:14:11.808Z,1000.86
2022-12-04T11:19:11.727Z,1000.91
2022-12-04T11:24:11.681Z,1000.88
2022-12-04T11:29:11.600Z,1000.90
2022-12-04T11:34:11.544Z,1000.78
2022-12-04T11:39:11.472Z,1000.79
2022-12-04T11:44:11.418Z,1000.63
2022-12-04T11:49:11.347Z,1000.46
2022-12-04T11:54:11.290Z,1000.33
2022-12-04T11:59:11.219Z,1000.32
2022-12-04T12:04:11.163Z,1000.47
2022-12-04T12:09:11.094Z,1000.41
2022-12-04T12:14:11.049Z,1000.38
2022-12-04T12:19:10.967Z,1000.40
2022-12-04T12:24:10.921Z,1000.30
2022-12-04T12:29:10.845Z,1000.27
2022-12-04T12:34:10.801Z,1000.16
2022-12-04T12:39:10.712Z,1000.07
2022-12-04T12:44:10.666Z,999.98
2022-12-04T12:49:10.584Z,999.97
2022-12-04T12:54:10.529Z,999.91
2022-12-04T12:59:10.458Z,999.84
2022-12-04T13:04:10.402Z,999.73
2022-12-04T13:09:10.332Z,999.60
2022-12-04T13:14:10.276Z,999.48
2022-12-04T13:19:10.205Z,999.34
2022-12-04T13:24:10.146Z,999.49
2022-12-04T13:29:10.077Z,999.41
2022-12-04T13:34:10.030Z,999.60
2022-12-04T13:39:09.948Z,999.55
2022-12-04T13:44:09.892Z,999.63
2022-12-04T13:49:09.826Z,999.60
2022-12-04T13:54:09.860Z,999.66
2022-12-04T13:59:09.692Z,999.43
2022-12-04T14:04:09.636Z,999.55
2022-12-04T14:09:09.568Z,999.69
2022-12-04T14:14:09.514Z,999.65
2022-12-04T14:19:09.449Z,999.77
2022-12-04T14:24:09.383Z,999.68
2022-12-04T14:29:09.322Z,999.70
2022-12-04T14:34:09.255Z,999.55
2022-12-04T14:39:09.197Z,999.50
2022-12-04T14:44:09.128Z,999.60
2022-12-04T14:49:09.070Z,999.67
2022-12-04T14:54:09.004Z,999.68
2022-12-04T14:59:08.933Z,999.67
2022-12-04T15:04:08.918Z,999.59
2022-12-04T15:09:08.809Z,999.61
2022-12-04T15:14:08.752Z,999.61
2022-12-04T15:19:08.681Z,999.47
2022-12-04T15:24:08.630Z,999.38
2022-12-04T15:29:08.553Z,999.30
2022-12-04T15:34:08.498Z,999.36
2022-12-04T15:39:08.437Z,999.27
2022-12-04T15:44:08.372Z,999.33
2022-12-04T15:49:08.312Z,999.31
2022-12-04T15:54:08.246Z,999.42
2022-12-04T15:59:08.186Z,999.35
2022-12-04T16:04:08.120Z,999.23
2022-12-04T16:09:08.063Z,999.27
2022-12-04T16:14:07.992Z,999.15
2022-12-04T16:19:07.935Z,999.15
2022-12-04T16:24:07.871Z,999.27
2022-12-04T16:29:07.818Z,999.27
2022-12-04T16:34:07.746Z,999.28
2022-12-04T16:39:07.689Z,999.31
2022-12-04T16:44:07.621Z,999.29
2022-12-04T16:49:07.839Z,999.25
2022-12-04T16:54:07.494Z,999.24
2022-12-04T16:59:11.689Z,999.23
2022-12-04T17:04:07.453Z,999.27
2022-12-04T17:09:07.299Z,999.35
2022-12-04T17:14:07.300Z,999.28
2022-12-04T17:19:07.172Z,999.38
2022-12-04T17:24:07.119Z,999.36
2022-12-04T17:29:07.054Z,999.14
2022-12-04T17:34:07.007Z,999.20
2022-12-04T17:39:06.931Z,999.18
2022-12-04T17:44:06.871Z,999.09
2022-12-04T17:49:07.550Z,999.11
2022-12-04T17:54:06.742Z,999.09
2022-12-04T17:59:06.683Z,999.07
2022-12-04T18:04:06.618Z,999.01
2022-12-04T18:09:06.560Z,999.06
2022-12-04T18:14:11.668Z,999.07
2022-12-04T18:19:06.434Z,999.01
2022-12-04T18:24:06.413Z,998.97
2022-12-04T18:29:06.294Z,999.02
2022-12-04T18:34:06.238Z,999.06
2022-12-04T18:39:06.167Z,999.00
2022-12-04T18:44:06.110Z,999.05
2022-12-04T18:49:06.045Z,999.04
2022-12-04T18:54:05.986Z,999.08
2022-12-04T18:59:05.915Z,999.15
2022-12-04T19:04:05.921Z,999.12
2022-12-04T19:09:05.792Z,999.22
2022-12-04T19:14:14.819Z,999.16
2022-12-04T19:19:06.689Z,999.14
2022-12-04T19:24:05.606Z,999.11
2022-12-04T19:29:05.543Z,999.15
2022-12-04T19:34:05.530Z,999.16
2022-12-04T19:39:05.410Z,999.29
2022-12-04T19:44:39.685Z,999.29
2022-12-04T19:49:06.313Z,999.28
2022-12-04T19:54:05.290Z,999.26
2022-12-04T19:59:05.178Z,999.18
2022-12-04T20:04:05.111Z,999.12
2022-12-04T20:09:05.040Z,999.22
2022-12-04T20:14:04.978Z,999.18
2022-12-04T20:19:04.905Z,999.13
2022-12-04T20:24:04.857Z,999.10
2022-12-04T20:29:04.813Z,999.04
2022-12-04T20:34:04.728Z,999.01
2022-12-04T20:39:04.655Z,998.99
2022-12-04T20:44:04.616Z,998.99
2022-12-04T20:49:04.529Z,998.99
2022-12-04T20:54:04.502Z,999.01
2022-12-04T20:59:04.400Z,998.99
2022-12-04T21:04:04.447Z,998.90
2022-12-04T21:09:04.274Z,998.89
2022-12-04T21:14:04.228Z,998.86
2022-12-04T21:19:04.148Z,998.76
2022-12-04T21:24:04.102Z,998.71
2022-12-04T21:29:04.026Z,998.74
2022-12-04T21:34:03.970Z,998.73
2022-12-04T21:39:03.904Z,998.79
2022-12-04T21:44:03.843Z,998.83
2022-12-04T21:49:03.779Z,998.81
2022-12-04T21:54:03.718Z,998.87
2022-12-04T21:59:03.657Z,998.94
2022-12-04T22:04:03.594Z,998.87
2022-12-04T22:09:03.553Z,998.88
2022-12-04T22:14:03.454Z,998.89
2022-12-04T22:19:03.406Z,998.89
2022-12-04T22:24:03.327Z,998.85
2022-12-04T22:29:20.836Z,998.87
2022-12-04T22:34:04.231Z,998.81
2022-12-04T22:39:09.882Z,998.87
2022-12-04T22:44:03.079Z,998.82
2022-12-04T22:49:03.019Z,998.76
2022-12-04T22:54:02.961Z,998.74
2022-12-04T22:59:02.894Z,998.74
2022-12-04T23:04:02.833Z,998.72
2022-12-04T23:09:02.773Z,998.70
2022-12-04T23:14:02.707Z,998.68
2022-12-04T23:19:02.636Z,998.64
2022-12-04T23:24:02.576Z,998.63
2022-12-04T23:29:02.512Z,998.61
2022-12-04T23:34:02.442Z,998.54
2022-12-04T23:39:02.384Z,998.61
2022-12-04T23:44:02.315Z,998.62
2022-12-04T23:49:02.257Z,998.68
2022-12-04T23:54:02.237Z,998.65
2022-12-04T23:59:02.184Z,998.62
